Weather History for KVWU - April, 2012

Change the Weather History Date:

Wednesday, April 18, 2012

  Actual Average (KBDE) Record (KBDE)
Temperature  
Mean Temperature 40 °F -  
Max Temperature 48 °F 56 °F 87 °F (1987)
Min Temperature 33 °F 30 °F 15 °F (1988)
Degree Days  
Heating Degree Days 24    
Moisture  
Dew Point 34 °F    
Average Humidity 75    
Maximum Humidity 100    
Minimum Humidity 50    
Precipitation  
Precipitation 0.02 in - - ()
Sea Level Pressure  
Sea Level Pressure 29.92 in    
Wind  
Wind Speed 7 mph (NNW)    
Max Wind Speed 17 mph    
Max Gust Speed 23 mph    
Visibility 9 miles    
Events Rain    
Averages and records for this station are not official NWS values.
T = Trace of Precipitation, MM = Missing Value Source: NWS Daily Summary

Daily Weather History Graph

Daily Weather History Graph

Search for Another Location

Airport or City:

Trip Planner

Search our weather history database for the weather conditions in past years. The results will help you decide how hot, cold, wet, or windy it might be!

Date:

Astronomy

Apr. 18, 2012 Rise Set
Actual Time 6:21 AM CDT 8:13 PM CDT
Civil Twilight 5:48 AM CDT 8:47 PM CDT
Nautical Twilight 5:07 AM CDT 9:28 PM CDT
Astronomical Twilight 4:22 AM CDT 10:13 PM CDT
Moon 4:57 AM CDT (4/18) 5:58 PM CDT (4/18)
Length of Visible Light 14h 58m
Length of Day
13h 52m
Waning Crescent, 6% of the Moon is Illuminated
Apr 18
Waning Crescent
Apr 21
New
Apr 29
First Quarter
May 5
Full
May 12
Last Quarter

Hourly Weather History & Observations

Time (CDT) Temp. Windchill Dew Point Humidity Pressure Visibility Wind Dir Wind Speed Gust Speed Precip Events Conditions
12:06 AM 42.8 °F 37.5 °F 33.8 °F 70% 29.92 in 10.0 mi East 9.2 mph - N/A   Clear
12:27 AM 42.8 °F 38.0 °F 35.6 °F 76% 29.91 in 10.0 mi East 8.1 mph - N/A   Mostly Cloudy
12:47 AM 42.8 °F 39.3 °F 35.6 °F 76% 29.91 in 10.0 mi East 5.8 mph - N/A   Overcast
1:06 AM 44.6 °F 39.7 °F 35.6 °F 71% 29.89 in 10.0 mi East 9.2 mph - N/A   Overcast
1:27 AM 44.6 °F 39.7 °F 35.6 °F 71% 29.87 in 10.0 mi ESE 9.2 mph - N/A   Light Drizzle
1:47 AM 44.6 °F 40.2 °F 37.4 °F 76% 29.86 in 10.0 mi SE 8.1 mph - N/A   Mostly Cloudy
2:06 AM 46.4 °F 42.4 °F 37.4 °F 71% 29.85 in 10.0 mi SE 8.1 mph - N/A   Light Drizzle
2:27 AM 44.6 °F - 37.4 °F 76% 29.86 in 10.0 mi Calm Calm - N/A   Scattered Clouds
2:47 AM 44.6 °F 43.1 °F 37.4 °F 76% 29.87 in 10.0 mi West 3.5 mph - N/A   Mostly Cloudy
3:07 AM 44.6 °F - 39.2 °F 81% 29.84 in 10.0 mi Calm Calm - 0.01 in Rain Light Rain
3:27 AM 44.6 °F - 39.2 °F 81% 29.84 in 10.0 mi Calm Calm - 0.01 in   Overcast
3:47 AM 42.8 °F - 39.2 °F 87% 29.83 in 10.0 mi Calm Calm - 0.01 in   Overcast
4:27 AM 41.0 °F 38.0 °F 39.2 °F 93% 29.82 in 10.0 mi NE 4.6 mph - N/A   Light Drizzle
4:47 AM 41.0 °F 38.0 °F 37.4 °F 87% 29.81 in 10.0 mi NE 4.6 mph - N/A Rain Light Rain
5:07 AM 41.0 °F 36.4 °F 37.4 °F 87% 29.80 in 10.0 mi East 6.9 mph - N/A Rain Light Rain
5:27 AM 41.0 °F 38.0 °F 39.2 °F 93% 29.80 in 10.0 mi ENE 4.6 mph - N/A Rain Light Rain
5:46 AM 41.0 °F 38.0 °F 39.2 °F 93% 29.79 in 10.0 mi East 4.6 mph - 0.01 in Rain Light Rain
7:07 AM 41.0 °F - 39.2 °F 93% 29.79 in 7.0 mi Calm Calm - N/A   Light Drizzle
7:27 AM 41.0 °F - 39.2 °F 93% 29.80 in 5.0 mi Calm Calm - N/A   Overcast
7:46 AM 41.0 °F 37.1 °F 39.2 °F 93% 29.80 in 5.0 mi NW 5.8 mph - N/A   Overcast
8:07 AM 41.0 °F 39.0 °F 39.2 °F 93% 29.80 in 7.0 mi NNW 3.5 mph - N/A   Overcast
8:27 AM 41.0 °F 36.4 °F 39.2 °F 93% 29.80 in 7.0 mi NW 6.9 mph - N/A   Overcast
8:47 AM 41.0 °F 36.4 °F 39.2 °F 93% 29.80 in 10.0 mi NW 6.9 mph - N/A   Overcast
9:07 AM 41.0 °F 35.8 °F 39.2 °F 93% 29.81 in 2.5 mi NW 8.1 mph - N/A   Overcast
9:27 AM 41.0 °F 33.9 °F 39.2 °F 93% 29.82 in 2.0 mi NW 12.7 mph 17.3 mph N/A   Overcast
9:47 AM 39.2 °F 30.2 °F 39.2 °F 100% 29.84 in 1.2 mi NW 17.3 mph 23.0 mph N/A   Overcast
10:07 AM 39.2 °F 30.8 °F 37.4 °F 93% 29.85 in 2.5 mi NW 15.0 mph 23.0 mph N/A   Overcast
10:27 AM 39.2 °F 30.5 °F 37.4 °F 93% 29.86 in 7.0 mi NW 16.1 mph 23.0 mph N/A   Overcast
10:47 AM 39.2 °F 30.8 °F 37.4 °F 93% 29.87 in 10.0 mi NW 15.0 mph 21.9 mph N/A   Overcast
11:07 AM 39.2 °F 31.6 °F 37.4 °F 93% 29.88 in 10.0 mi NW 12.7 mph 18.4 mph N/A   Overcast
11:47 AM 39.2 °F 31.2 °F 37.4 °F 93% 29.89 in 10.0 mi NNW 13.8 mph 21.9 mph N/A   Overcast
12:07 PM 41.0 °F 33.9 °F 37.4 °F 87% 29.90 in 10.0 mi NNW 12.7 mph 19.6 mph N/A   Overcast
12:26 PM 42.8 °F 36.2 °F 37.4 °F 81% 29.90 in 10.0 mi NW 12.7 mph 18.4 mph N/A   Overcast
12:47 PM 42.8 °F 37.0 °F 37.4 °F 81% 29.90 in 10.0 mi NNW 10.4 mph 20.7 mph N/A   Overcast
1:07 PM 44.6 °F 38.8 °F 35.6 °F 71% 29.91 in 10.0 mi NNW 11.5 mph 20.7 mph N/A   Overcast
1:26 PM 44.6 °F 37.8 °F 35.6 °F 71% 29.92 in 10.0 mi NW 15.0 mph 23.0 mph N/A   Overcast
1:47 PM 44.6 °F 38.4 °F 35.6 °F 71% 29.94 in 10.0 mi NW 12.7 mph 19.6 mph N/A   Overcast
2:07 PM 44.6 °F 38.1 °F 35.6 °F 71% 29.95 in 10.0 mi NW 13.8 mph 19.6 mph N/A   Overcast
2:26 PM 44.6 °F 37.8 °F 35.6 °F 71% 29.96 in 10.0 mi NW 15.0 mph 20.7 mph N/A   Overcast
2:47 PM 46.4 °F 40.4 °F 33.8 °F 62% 29.97 in 10.0 mi NW 13.8 mph 19.6 mph N/A   Overcast
3:07 PM 46.4 °F 41.9 °F 33.8 °F 62% 29.97 in 10.0 mi NNW 9.2 mph 18.4 mph N/A   Mostly Cloudy
3:27 PM 48.2 °F - 33.8 °F 58% 29.98 in 10.0 mi NNW 11.5 mph 18.4 mph N/A   Mostly Cloudy
3:47 PM 48.2 °F - 33.8 °F 58% 29.98 in 10.0 mi NNW 12.7 mph 18.4 mph N/A   Mostly Cloudy
4:07 PM 48.2 °F - 30.2 °F 50% 29.98 in 10.0 mi NNW 12.7 mph 20.7 mph N/A   Mostly Cloudy
4:27 PM 48.2 °F - 30.2 °F 50% 29.99 in 10.0 mi NNW 9.2 mph - N/A   Mostly Cloudy
4:47 PM 48.2 °F - 30.2 °F 50% 29.99 in 10.0 mi NW 12.7 mph 17.3 mph N/A   Scattered Clouds
5:06 PM 46.4 °F 42.4 °F 30.2 °F 53% 29.99 in 10.0 mi NNW 8.1 mph - N/A   Mostly Cloudy
5:27 PM 46.4 °F 41.9 °F 30.2 °F 53% 29.99 in 10.0 mi North 9.2 mph 16.1 mph N/A   Mostly Cloudy
5:47 PM 46.4 °F 41.9 °F 30.2 °F 53% 29.99 in 10.0 mi NNW 9.2 mph - N/A   Mostly Cloudy
6:06 PM 46.4 °F 41.1 °F 30.2 °F 53% 29.99 in 10.0 mi North 11.5 mph - N/A   Mostly Cloudy
6:27 PM 46.4 °F 41.5 °F 30.2 °F 53% 29.99 in 10.0 mi North 10.4 mph - N/A   Scattered Clouds
6:47 PM 46.4 °F 43.5 °F 28.4 °F 50% 29.99 in 10.0 mi North 5.8 mph - N/A   Mostly Cloudy
7:06 PM 44.6 °F 41.4 °F 28.4 °F 53% 29.99 in 10.0 mi North 5.8 mph - N/A   Mostly Cloudy
7:27 PM 44.6 °F 41.4 °F 28.4 °F 53% 30.00 in 10.0 mi North 5.8 mph - N/A   Mostly Cloudy
7:47 PM 42.8 °F 41.1 °F 28.4 °F 57% 30.00 in 10.0 mi North 3.5 mph - N/A   Scattered Clouds
8:06 PM 42.8 °F - 28.4 °F 57% 30.00 in 10.0 mi Calm Calm - N/A   Clear
8:27 PM 41.0 °F - 28.4 °F 61% 30.01 in 10.0 mi Calm Calm - N/A   Clear
8:47 PM 37.4 °F - 28.4 °F 70% 30.02 in 10.0 mi Calm Calm - N/A   Scattered Clouds
9:06 PM 37.4 °F - 28.4 °F 70% 30.03 in 10.0 mi Calm Calm - N/A   Scattered Clouds
9:27 PM 35.6 °F 32.8 °F 28.4 °F 75% 30.04 in 10.0 mi East 3.5 mph - N/A   Mostly Cloudy
9:47 PM 35.6 °F - 28.4 °F 75% 30.04 in 10.0 mi Calm Calm - N/A   Overcast
10:07 PM 33.8 °F - 28.4 °F 81% 30.04 in 10.0 mi Calm Calm - N/A   Overcast
10:27 PM 33.8 °F 30.8 °F 28.4 °F 81% 30.04 in 10.0 mi ESE 3.5 mph - N/A   Overcast
10:47 PM 35.6 °F - 30.2 °F 81% 30.05 in 10.0 mi Calm Calm - N/A   Overcast
11:07 PM 35.6 °F - 28.4 °F 75% 30.05 in 10.0 mi Calm Calm - N/A   Overcast
11:27 PM 35.6 °F - 28.4 °F 75% 30.05 in 10.0 mi Calm Calm - N/A   Overcast
11:46 PM 35.6 °F - 28.4 °F 75% 30.06 in 10.0 mi Calm Calm - N/A   Overcast